sensor_id;sensor_type;location;lat;lon;timestamp;pressure;altitude;pressure_sealevel;temperature;humidity
35878;BME280;21982;49.804;24.072;2023-03-16T00:00:23;96934.78;;;2.95;69.66
35878;BME280;21982;49.804;24.072;2023-03-16T00:02:49;97009.09;;;3.38;69.43
35878;BME280;21982;49.804;24.072;2023-03-16T00:05:14;96980.28;;;3.20;69.20
35878;BME280;21982;49.804;24.072;2023-03-16T00:07:40;96868.22;;;2.54;69.97
35878;BME280;21982;49.804;24.072;2023-03-16T00:10:07;96876.16;;;2.62;70.10
35878;BME280;21982;49.804;24.072;2023-03-16T00:12:32;96995.91;;;3.29;69.40
35878;BME280;21982;49.804;24.072;2023-03-16T00:14:59;97001.75;;;3.23;69.59
35878;BME280;21982;49.804;24.072;2023-03-16T00:17:25;97005.63;;;3.19;69.96
35878;BME280;21982;49.804;24.072;2023-03-16T00:19:53;97021.84;;;3.23;69.88
35878;BME280;21982;49.804;24.072;2023-03-16T00:22:23;97005.03;;;3.25;69.35
35878;BME280;21982;49.804;24.072;2023-03-16T00:24:49;96927.59;;;2.61;69.59
35878;BME280;21982;49.804;24.072;2023-03-16T00:27:15;97005.56;;;3.29;69.53
35878;BME280;21982;49.804;24.072;2023-03-16T00:29:45;96924.34;;;2.77;69.72
35878;BME280;21982;49.804;24.072;2023-03-16T00:32:22;96953.19;;;3.03;69.78
35878;BME280;21982;49.804;24.072;2023-03-16T00:34:48;97003.41;;;3.24;69.18
35878;BME280;21982;49.804;24.072;2023-03-16T00:37:15;96889.66;;;2.57;69.54
35878;BME280;21982;49.804;24.072;2023-03-16T00:39:42;96954.66;;;2.88;69.50
35878;BME280;21982;49.804;24.072;2023-03-16T00:42:09;96782.09;;;1.81;69.37
35878;BME280;21982;49.804;24.072;2023-03-16T00:44:35;96977.84;;;3.00;69.36
35878;BME280;21982;49.804;24.072;2023-03-16T00:47:02;97013.44;;;3.11;69.29
35878;BME280;21982;49.804;24.072;2023-03-16T00:49:27;96952.66;;;2.54;69.78
35878;BME280;21982;49.804;24.072;2023-03-16T00:51:53;97011.25;;;3.07;69.82
35878;BME280;21982;49.804;24.072;2023-03-16T00:54:18;97009.31;;;3.09;69.79
35878;BME280;21982;49.804;24.072;2023-03-16T00:56:44;96916.97;;;2.45;69.71
35878;BME280;21982;49.804;24.072;2023-03-16T00:59:09;96880.75;;;2.32;69.76
35878;BME280;21982;49.804;24.072;2023-03-16T01:01:38;96927.88;;;2.58;69.84
35878;BME280;21982;49.804;24.072;2023-03-16T01:04:04;97020.59;;;3.09;69.48
35878;BME280;21982;49.804;24.072;2023-03-16T01:06:29;96929.28;;;2.53;69.87
35878;BME280;21982;49.804;24.072;2023-03-16T01:08:55;97022.53;;;3.07;69.44
35878;BME280;21982;49.804;24.072;2023-03-16T01:11:22;96886.03;;;2.23;70.06
35878;BME280;21982;49.804;24.072;2023-03-16T01:13:49;97022.25;;;3.10;69.83
35878;BME280;21982;49.804;24.072;2023-03-16T01:16:17;96954.56;;;2.80;69.98
35878;BME280;21982;49.804;24.072;2023-03-16T01:18:43;97025.59;;;3.20;69.39
35878;BME280;21982;49.804;24.072;2023-03-16T01:21:09;97014.97;;;3.04;69.42
35878;BME280;21982;49.804;24.072;2023-03-16T01:23:38;96945.47;;;2.66;69.27
35878;BME280;21982;49.804;24.072;2023-03-16T01:26:04;97039.78;;;3.18;69.30
35878;BME280;21982;49.804;24.072;2023-03-16T01:28:31;97028.22;;;3.20;69.84
35878;BME280;21982;49.804;24.072;2023-03-16T01:31:07;97032.31;;;3.23;69.41
35878;BME280;21982;49.804;24.072;2023-03-16T01:33:34;96960.56;;;2.72;69.09
35878;BME280;21982;49.804;24.072;2023-03-16T01:36:09;97037.41;;;3.24;69.40
35878;BME280;21982;49.804;24.072;2023-03-16T01:38:35;97035.97;;;3.12;69.31
35878;BME280;21982;49.804;24.072;2023-03-16T01:41:00;96670.53;;;0.93;68.69
35878;BME280;21982;49.804;24.072;2023-03-16T01:43:29;97036.72;;;3.22;68.58
35878;BME280;21982;49.804;24.072;2023-03-16T01:48:27;96988.06;;;2.94;68.51
35878;BME280;21982;49.804;24.072;2023-03-16T01:50:54;96553.25;;;-0.09;68.81
35878;BME280;21982;49.804;24.072;2023-03-16T01:53:21;97032.19;;;3.24;69.10
35878;BME280;21982;49.804;24.072;2023-03-16T01:55:49;97039.06;;;3.25;68.91
35878;BME280;21982;49.804;24.072;2023-03-16T01:58:15;96977.50;;;2.86;68.74
35878;BME280;21982;49.804;24.072;2023-03-16T02:00:41;97042.50;;;3.26;69.24
35878;BME280;21982;49.804;24.072;2023-03-16T02:03:14;96875.00;;;2.29;68.36
35878;BME280;21982;49.804;24.072;2023-03-16T02:05:44;97043.31;;;3.26;68.86
35878;BME280;21982;49.804;24.072;2023-03-16T02:08:12;97043.75;;;3.22;68.93
35878;BME280;21982;49.804;24.072;2023-03-16T02:10:38;96964.56;;;2.66;68.52
35878;BME280;21982;49.804;24.072;2023-03-16T02:13:04;96839.47;;;1.91;68.29
35878;BME280;21982;49.804;24.072;2023-03-16T02:15:30;96930.16;;;2.44;68.05
35878;BME280;21982;49.804;24.072;2023-03-16T02:17:55;97038.44;;;3.14;68.19
35878;BME280;21982;49.804;24.072;2023-03-16T02:22:51;97049.44;;;3.17;67.88
35878;BME280;21982;49.804;24.072;2023-03-16T02:25:35;97047.78;;;3.16;67.37
35878;BME280;21982;49.804;24.072;2023-03-16T02:28:26;97053.31;;;3.13;67.30
35878;BME280;21982;49.804;24.072;2023-03-16T02:30:55;97051.16;;;3.09;67.15
35878;BME280;21982;49.804;24.072;2023-03-16T02:33:21;97020.72;;;2.90;67.44
35878;BME280;21982;49.804;24.072;2023-03-16T02:35:47;97009.94;;;2.75;67.46
35878;BME280;21982;49.804;24.072;2023-03-16T02:38:12;97059.75;;;3.01;67.29
35878;BME280;21982;49.804;24.072;2023-03-16T02:40:38;97053.41;;;3.03;67.00
35878;BME280;21982;49.804;24.072;2023-03-16T02:45:35;96966.41;;;2.39;66.95
35878;BME280;21982;49.804;24.072;2023-03-16T02:48:04;97063.94;;;2.84;67.19
35878;BME280;21982;49.804;24.072;2023-03-16T02:50:31;96975.34;;;2.36;66.58
35878;BME280;21982;49.804;24.072;2023-03-16T02:52:57;97066.38;;;2.95;66.64
35878;BME280;21982;49.804;24.072;2023-03-16T02:55:22;97069.81;;;2.96;66.42
35878;BME280;21982;49.804;24.072;2023-03-16T02:57:48;97012.41;;;2.49;66.59
35878;BME280;21982;49.804;24.072;2023-03-16T03:00:13;96858.31;;;1.57;66.38
35878;BME280;21982;49.804;24.072;2023-03-16T03:02:44;97083.72;;;2.96;66.64
35878;BME280;21982;49.804;24.072;2023-03-16T03:05:10;97032.75;;;2.46;66.39
35878;BME280;21982;49.804;24.072;2023-03-16T03:07:35;97063.69;;;2.78;65.87
35878;BME280;21982;49.804;24.072;2023-03-16T03:10:01;96963.88;;;2.10;66.26
35878;BME280;21982;49.804;24.072;2023-03-16T03:12:27;97023.66;;;2.50;65.80
35878;BME280;21982;49.804;24.072;2023-03-16T03:14:52;97001.06;;;2.31;66.46
35878;BME280;21982;49.804;24.072;2023-03-16T03:17:17;97100.56;;;2.84;66.09
35878;BME280;21982;49.804;24.072;2023-03-16T03:19:43;97088.81;;;2.71;66.08
35878;BME280;21982;49.804;24.072;2023-03-16T03:22:08;97014.97;;;2.31;65.43
35878;BME280;21982;49.804;24.072;2023-03-16T03:24:34;97069.81;;;2.31;65.68
35878;BME280;21982;49.804;24.072;2023-03-16T03:27:00;97101.09;;;2.88;65.42
35878;BME280;21982;49.804;24.072;2023-03-16T03:29:30;96991.75;;;2.19;65.96
35878;BME280;21982;49.804;24.072;2023-03-16T03:32:05;96937.03;;;1.90;65.39
35878;BME280;21982;49.804;24.072;2023-03-16T03:34:31;96925.25;;;1.76;65.92
35878;BME280;21982;49.804;24.072;2023-03-16T03:36:57;97118.16;;;2.92;65.78
35878;BME280;21982;49.804;24.072;2023-03-16T03:39:23;97113.88;;;2.91;65.38
35878;BME280;21982;49.804;24.072;2023-03-16T03:41:48;97110.69;;;2.97;65.95
35878;BME280;21982;49.804;24.072;2023-03-16T03:44:14;97090.38;;;2.81;65.69
35878;BME280;21982;49.804;24.072;2023-03-16T03:46:39;96999.97;;;2.33;65.21
35878;BME280;21982;49.804;24.072;2023-03-16T03:49:04;97104.94;;;2.93;65.31
35878;BME280;21982;49.804;24.072;2023-03-16T03:51:30;97117.38;;;3.09;65.62
35878;BME280;21982;49.804;24.072;2023-03-16T03:53:57;97115.59;;;3.10;64.98
35878;BME280;21982;49.804;24.072;2023-03-16T03:56:23;97032.72;;;2.55;65.43
35878;BME280;21982;49.804;24.072;2023-03-16T03:58:48;97108.75;;;2.99;65.54
35878;BME280;21982;49.804;24.072;2023-03-16T04:01:14;97117.28;;;3.01;65.30
35878;BME280;21982;49.804;24.072;2023-03-16T04:03:39;97061.56;;;2.73;65.02
35878;BME280;21982;49.804;24.072;2023-03-16T04:06:05;97114.78;;;3.09;65.65
35878;BME280;21982;49.804;24.072;2023-03-16T04:08:32;97114.16;;;3.15;65.47
35878;BME280;21982;49.804;24.072;2023-03-16T04:10:57;96999.72;;;2.54;64.74
35878;BME280;21982;49.804;24.072;2023-03-16T04:13:23;97077.75;;;3.04;65.37
35878;BME280;21982;49.804;24.072;2023-03-16T04:15:48;97014.44;;;2.55;65.42
35878;BME280;21982;49.804;24.072;2023-03-16T04:18:14;97079.59;;;2.94;65.67
35878;BME280;21982;49.804;24.072;2023-03-16T04:20:39;96865.72;;;1.62;65.34
35878;BME280;21982;49.804;24.072;2023-03-16T04:23:04;97116.72;;;3.07;64.98
35878;BME280;21982;49.804;24.072;2023-03-16T04:25:30;97112.88;;;3.01;65.55
35878;BME280;21982;49.804;24.072;2023-03-16T04:27:55;97052.00;;;2.54;65.20
35878;BME280;21982;49.804;24.072;2023-03-16T04:30:21;97056.41;;;2.44;65.00
35878;BME280;21982;49.804;24.072;2023-03-16T04:32:50;97009.75;;;2.22;65.73
35878;BME280;21982;49.804;24.072;2023-03-16T04:35:17;96938.22;;;1.68;65.40
35878;BME280;21982;49.804;24.072;2023-03-16T04:37:43;97135.88;;;2.98;65.63
35878;BME280;21982;49.804;24.072;2023-03-16T04:40:09;97141.13;;;2.98;65.43
35878;BME280;21982;49.804;24.072;2023-03-16T04:42:42;97149.25;;;2.95;65.20
35878;BME280;21982;49.804;24.072;2023-03-16T04:45:08;97154.47;;;2.95;65.17
35878;BME280;21982;49.804;24.072;2023-03-16T04:47:33;97153.13;;;2.91;65.55
35878;BME280;21982;49.804;24.072;2023-03-16T04:50:00;97120.09;;;2.53;65.41
35878;BME280;21982;49.804;24.072;2023-03-16T04:52:26;97106.59;;;2.57;65.40
35878;BME280;21982;49.804;24.072;2023-03-16T04:54:52;97091.47;;;2.51;64.86
35878;BME280;21982;49.804;24.072;2023-03-16T04:57:17;97118.66;;;2.68;65.40
35878;BME280;21982;49.804;24.072;2023-03-16T04:59:44;97167.56;;;2.95;64.82
35878;BME280;21982;49.804;24.072;2023-03-16T05:02:09;97162.88;;;2.89;64.90
35878;BME280;21982;49.804;24.072;2023-03-16T05:04:35;97166.88;;;2.93;65.27
35878;BME280;21982;49.804;24.072;2023-03-16T05:07:00;97171.41;;;2.91;64.72
35878;BME280;21982;49.804;24.072;2023-03-16T05:09:25;97173.34;;;2.89;64.80
35878;BME280;21982;49.804;24.072;2023-03-16T05:11:51;97085.09;;;2.36;64.71
35878;BME280;21982;49.804;24.072;2023-03-16T05:14:16;97178.31;;;2.92;65.33
35878;BME280;21982;49.804;24.072;2023-03-16T05:16:41;97177.34;;;2.93;65.25
35878;BME280;21982;49.804;24.072;2023-03-16T05:19:07;97074.13;;;2.13;64.91
35878;BME280;21982;49.804;24.072;2023-03-16T05:21:32;97175.00;;;2.90;64.98
35878;BME280;21982;49.804;24.072;2023-03-16T05:23:58;97179.53;;;2.97;65.39
35878;BME280;21982;49.804;24.072;2023-03-16T05:26:23;97172.09;;;2.93;65.06
35878;BME280;21982;49.804;24.072;2023-03-16T05:28:50;97185.97;;;3.03;64.65
35878;BME280;21982;49.804;24.072;2023-03-16T05:31:16;97099.19;;;2.43;64.63
35878;BME280;21982;49.804;24.072;2023-03-16T05:33:41;97136.53;;;2.73;64.67
35878;BME280;21982;49.804;24.072;2023-03-16T05:36:07;97171.81;;;2.96;64.85
35878;BME280;21982;49.804;24.072;2023-03-16T05:38:32;97137.50;;;2.72;64.58
35878;BME280;21982;49.804;24.072;2023-03-16T05:40:58;97210.25;;;3.23;64.50
35878;BME280;21982;49.804;24.072;2023-03-16T05:43:26;97145.00;;;2.84;64.97
35878;BME280;21982;49.804;24.072;2023-03-16T05:45:53;97217.38;;;3.30;64.79
35878;BME280;21982;49.804;24.072;2023-03-16T05:48:19;97191.09;;;3.22;64.87
35878;BME280;21982;49.804;24.072;2023-03-16T05:50:45;97209.63;;;3.39;64.37
35878;BME280;21982;49.804;24.072;2023-03-16T05:53:11;97148.72;;;2.82;64.08
35878;BME280;21982;49.804;24.072;2023-03-16T05:55:37;97143.66;;;2.80;64.38
35878;BME280;21982;49.804;24.072;2023-03-16T05:58:03;97135.53;;;2.83;64.54
35878;BME280;21982;49.804;24.072;2023-03-16T06:00:29;97237.19;;;3.43;64.37
35878;BME280;21982;49.804;24.072;2023-03-16T06:02:54;97240.47;;;3.45;64.06
35878;BME280;21982;49.804;24.072;2023-03-16T06:05:20;97237.09;;;3.52;63.73
35878;BME280;21982;49.804;24.072;2023-03-16T06:07:47;96983.63;;;1.94;63.57
35878;BME280;21982;49.804;24.072;2023-03-16T06:10:14;97243.41;;;3.59;63.88
35878;BME280;21982;49.804;24.072;2023-03-16T06:12:40;97177.16;;;3.31;63.77
35878;BME280;21982;49.804;24.072;2023-03-16T06:15:06;97222.91;;;3.55;63.28
35878;BME280;21982;49.804;24.072;2023-03-16T06:17:33;97032.75;;;2.46;63.28
35878;BME280;21982;49.804;24.072;2023-03-16T06:19:59;97116.75;;;2.97;63.02
35878;BME280;21982;49.804;24.072;2023-03-16T06:22:24;97227.16;;;3.56;63.16
35878;BME280;21982;49.804;24.072;2023-03-16T06:24:50;97257.00;;;3.73;63.14
35878;BME280;21982;49.804;24.072;2023-03-16T06:27:17;97270.13;;;3.90;63.26
35878;BME280;21982;49.804;24.072;2023-03-16T06:29:44;97228.53;;;3.60;63.29
35878;BME280;21982;49.804;24.072;2023-03-16T06:32:10;97275.09;;;3.84;62.77
35878;BME280;21982;49.804;24.072;2023-03-16T06:34:35;97171.25;;;3.02;63.19
35878;BME280;21982;49.804;24.072;2023-03-16T06:37:02;97232.94;;;3.59;62.86
35878;BME280;21982;49.804;24.072;2023-03-16T06:39:28;97221.34;;;3.62;63.28
35878;BME280;21982;49.804;24.072;2023-03-16T06:41:54;97273.22;;;4.03;62.50
35878;BME280;21982;49.804;24.072;2023-03-16T06:44:19;97281.91;;;4.22;62.81
35878;BME280;21982;49.804;24.072;2023-03-16T06:46:45;97271.22;;;4.15;62.24
35878;BME280;21982;49.804;24.072;2023-03-16T06:49:11;97135.38;;;3.40;62.52
35878;BME280;21982;49.804;24.072;2023-03-16T06:51:36;97288.22;;;4.47;62.32
35878;BME280;21982;49.804;24.072;2023-03-16T06:54:01;97196.63;;;3.92;62.15
35878;BME280;21982;49.804;24.072;2023-03-16T06:56:27;97190.94;;;3.96;61.74
35878;BME280;21982;49.804;24.072;2023-03-16T06:58:53;97185.31;;;3.91;61.63
35878;BME280;21982;49.804;24.072;2023-03-16T07:01:18;97259.81;;;4.42;61.81
35878;BME280;21982;49.804;24.072;2023-03-16T07:03:44;97318.06;;;4.89;61.15
35878;BME280;21982;49.804;24.072;2023-03-16T07:06:09;97266.16;;;4.75;61.08
35878;BME280;21982;49.804;24.072;2023-03-16T07:08:34;97319.13;;;5.22;60.98
35878;BME280;21982;49.804;24.072;2023-03-16T07:11:00;97295.63;;;5.13;60.64
35878;BME280;21982;49.804;24.072;2023-03-16T07:13:25;97327.47;;;5.44;60.34
35878;BME280;21982;49.804;24.072;2023-03-16T07:15:51;97333.72;;;5.77;60.20
35878;BME280;21982;49.804;24.072;2023-03-16T07:18:21;97331.72;;;6.04;59.36
35878;BME280;21982;49.804;24.072;2023-03-16T07:20:46;96964.97;;;3.94;58.70
35878;BME280;21982;49.804;24.072;2023-03-16T07:23:12;97334.47;;;6.61;58.58
35878;BME280;21982;49.804;24.072;2023-03-16T07:25:38;97270.19;;;6.64;57.63
35878;BME280;21982;49.804;24.072;2023-03-16T07:28:06;97329.53;;;7.48;56.75
35878;BME280;21982;49.804;24.072;2023-03-16T07:30:31;97334.63;;;8.04;55.71
35878;BME280;21982;49.804;24.072;2023-03-16T07:32:57;97266.03;;;8.13;55.03
35878;BME280;21982;49.804;24.072;2023-03-16T07:35:23;97344.50;;;9.18;53.39
35878;BME280;21982;49.804;24.072;2023-03-16T07:37:48;97334.56;;;9.20;53.10
35878;BME280;21982;49.804;24.072;2023-03-16T07:40:14;97321.97;;;9.07;52.32
35878;BME280;21982;49.804;24.072;2023-03-16T07:42:40;97316.22;;;9.04;52.79
35878;BME280;21982;49.804;24.072;2023-03-16T07:45:06;97350.38;;;9.05;52.46
35878;BME280;21982;49.804;24.072;2023-03-16T07:47:32;97195.19;;;8.32;52.09
35878;BME280;21982;49.804;24.072;2023-03-16T07:49:58;97357.13;;;9.46;52.35
35878;BME280;21982;49.804;24.072;2023-03-16T07:52:24;97347.00;;;9.34;51.45
35878;BME280;21982;49.804;24.072;2023-03-16T07:54:50;97342.22;;;9.15;51.14
35878;BME280;21982;49.804;24.072;2023-03-16T07:57:15;97208.13;;;7.96;51.57
35878;BME280;21982;49.804;24.072;2023-03-16T07:59:41;97360.47;;;9.02;51.44
35878;BME280;21982;49.804;24.072;2023-03-16T08:02:12;97244.84;;;8.74;51.16
35878;BME280;21982;49.804;24.072;2023-03-16T08:04:38;97366.13;;;10.03;50.12
35878;BME280;21982;49.804;24.072;2023-03-16T08:07:07;97252.50;;;9.22;49.71
35878;BME280;21982;49.804;24.072;2023-03-16T08:09:33;97357.91;;;9.84;50.11
35878;BME280;21982;49.804;24.072;2023-03-16T08:12:01;97364.97;;;10.21;49.60
35878;BME280;21982;49.804;24.072;2023-03-16T08:14:26;97327.44;;;10.32;48.90
35878;BME280;21982;49.804;24.072;2023-03-16T08:16:52;97340.75;;;10.96;48.66
35878;BME280;21982;49.804;24.072;2023-03-16T08:19:19;97281.06;;;11.00;47.54
35878;BME280;21982;49.804;24.072;2023-03-16T08:21:44;97363.38;;;11.69;47.08
35878;BME280;21982;49.804;24.072;2023-03-16T08:24:10;97292.44;;;11.22;46.56
35878;BME280;21982;49.804;24.072;2023-03-16T08:26:38;97211.19;;;10.80;45.99
35878;BME280;21982;49.804;24.072;2023-03-16T08:29:04;97367.00;;;11.61;45.95
35878;BME280;21982;49.804;24.072;2023-03-16T08:31:30;97321.53;;;11.15;45.71
35878;BME280;21982;49.804;24.072;2023-03-16T08:33:59;97209.84;;;10.62;45.50
35878;BME280;21982;49.804;24.072;2023-03-16T08:36:24;97380.56;;;12.01;45.35
35878;BME280;21982;49.804;24.072;2023-03-16T08:38:51;97206.25;;;10.98;44.76
35878;BME280;21982;49.804;24.072;2023-03-16T08:41:19;97350.47;;;11.87;44.36
35878;BME280;21982;49.804;24.072;2023-03-16T08:43:45;97329.91;;;11.68;44.43
35878;BME280;21982;49.804;24.072;2023-03-16T08:46:11;97298.00;;;11.55;44.14
35878;BME280;21982;49.804;24.072;2023-03-16T08:48:38;97287.31;;;11.41;43.88
35878;BME280;21982;49.804;24.072;2023-03-16T08:51:05;97376.59;;;12.25;43.48
35878;BME280;21982;49.804;24.072;2023-03-16T08:53:30;97399.81;;;12.10;43.22
35878;BME280;21982;49.804;24.072;2023-03-16T08:56:09;97338.53;;;10.99;43.79
35878;BME280;21982;49.804;24.072;2023-03-16T08:58:36;97390.91;;;10.97;44.41
35878;BME280;21982;49.804;24.072;2023-03-16T09:01:04;97397.38;;;10.73;44.52
35878;BME280;21982;49.804;24.072;2023-03-16T09:03:33;97378.03;;;11.16;44.66
35878;BME280;21982;49.804;24.072;2023-03-16T09:06:04;97260.38;;;10.89;43.42
35878;BME280;21982;49.804;24.072;2023-03-16T09:08:29;97126.44;;;9.66;43.60
35878;BME280;21982;49.804;24.072;2023-03-16T09:11:02;97323.59;;;10.70;43.29
35878;BME280;21982;49.804;24.072;2023-03-16T09:13:28;97421.38;;;11.29;43.78
35878;BME280;21982;49.804;24.072;2023-03-16T09:15:54;97304.25;;;11.19;43.13
35878;BME280;21982;49.804;24.072;2023-03-16T09:18:23;97385.03;;;12.35;41.97
35878;BME280;21982;49.804;24.072;2023-03-16T09:20:56;97377.84;;;12.29;41.20
35878;BME280;21982;49.804;24.072;2023-03-16T09:23:22;97394.28;;;12.46;41.20
35878;BME280;21982;49.804;24.072;2023-03-16T09:25:47;97154.28;;;11.79;40.77
35878;BME280;21982;49.804;24.072;2023-03-16T09:28:13;97254.41;;;13.05;40.04
35878;BME280;21982;49.804;24.072;2023-03-16T09:30:38;97253.16;;;12.75;39.58
35878;BME280;21982;49.804;24.072;2023-03-16T09:33:04;97429.31;;;14.42;38.93
35878;BME280;21982;49.804;24.072;2023-03-16T09:35:30;97435.59;;;15.12;38.12
35878;BME280;21982;49.804;24.072;2023-03-16T09:37:56;97439.41;;;15.61;37.42
35878;BME280;21982;49.804;24.072;2023-03-16T09:40:26;97344.28;;;15.41;36.54
35878;BME280;21982;49.804;24.072;2023-03-16T09:48:16;97437.56;;;13.81;37.44
35878;BME280;21982;49.804;24.072;2023-03-16T09:50:46;97286.22;;;11.64;38.47
35878;BME280;21982;49.804;24.072;2023-03-16T09:55:52;97248.72;;;10.83;39.55
35878;BME280;21982;49.804;24.072;2023-03-16T09:58:20;97444.22;;;12.29;39.14
35878;BME280;21982;49.804;24.072;2023-03-16T10:01:10;97450.53;;;11.93;39.45
35878;BME280;21982;49.804;24.072;2023-03-16T10:06:31;97451.03;;;11.82;39.75
35878;BME280;21982;49.804;24.072;2023-03-16T10:11:48;97433.56;;;13.11;37.47
35878;BME280;21982;49.804;24.072;2023-03-16T10:17:14;97459.34;;;13.17;36.67
35878;BME280;21982;49.804;24.072;2023-03-16T10:20:06;97470.47;;;13.54;36.76
35878;BME280;21982;49.804;24.072;2023-03-16T10:22:41;97463.13;;;14.08;35.88
35878;BME280;21982;49.804;24.072;2023-03-16T10:25:22;97429.81;;;14.70;35.13
35878;BME280;21982;49.804;24.072;2023-03-16T10:27:50;97236.47;;;14.43;33.75
35878;BME280;21982;49.804;24.072;2023-03-16T10:30:34;97409.16;;;16.35;33.46
35878;BME280;21982;49.804;24.072;2023-03-16T10:33:21;97389.03;;;15.08;33.50
35878;BME280;21982;49.804;24.072;2023-03-16T10:38:52;97467.25;;;13.78;34.45
35878;BME280;21982;49.804;24.072;2023-03-16T10:44:04;97439.59;;;13.79;34.52
35878;BME280;21982;49.804;24.072;2023-03-16T10:46:41;97085.63;;;11.02;34.66
35878;BME280;21982;49.804;24.072;2023-03-16T10:49:20;97436.34;;;12.42;35.02
35878;BME280;21982;49.804;24.072;2023-03-16T10:51:46;97164.22;;;9.82;35.69
35878;BME280;21982;49.804;24.072;2023-03-16T10:54:26;97472.19;;;11.54;36.33
35878;BME280;21982;49.804;24.072;2023-03-16T10:56:52;97464.56;;;11.66;35.67
35878;BME280;21982;49.804;24.072;2023-03-16T10:59:31;97409.34;;;10.69;35.57
35878;BME280;21982;49.804;24.072;2023-03-16T11:02:00;97242.75;;;9.52;36.18
35878;BME280;21982;49.804;24.072;2023-03-16T11:04:30;97469.44;;;10.54;36.59
35878;BME280;21982;49.804;24.072;2023-03-16T11:06:56;97474.28;;;11.37;36.69
35878;BME280;21982;49.804;24.072;2023-03-16T11:09:25;97295.78;;;11.30;35.60
35878;BME280;21982;49.804;24.072;2023-03-16T11:11:51;97468.84;;;12.44;35.17
35878;BME280;21982;49.804;24.072;2023-03-16T11:14:24;97298.50;;;11.71;34.72
35878;BME280;21982;49.804;24.072;2023-03-16T11:17:01;97471.19;;;13.15;34.07
35878;BME280;21982;49.804;24.072;2023-03-16T11:19:30;97418.16;;;11.77;34.40
35878;BME280;21982;49.804;24.072;2023-03-16T11:22:12;97474.53;;;11.21;35.25
35878;BME280;21982;49.804;24.072;2023-03-16T11:24:45;97479.66;;;10.57;35.52
35878;BME280;21982;49.804;24.072;2023-03-16T11:27:36;97479.03;;;10.26;36.12
35878;BME280;21982;49.804;24.072;2023-03-16T11:30:15;97483.59;;;10.61;36.02
35878;BME280;21982;49.804;24.072;2023-03-16T11:32:51;97477.25;;;10.77;35.37
35878;BME280;21982;49.804;24.072;2023-03-16T11:38:37;97383.06;;;9.27;36.52
35878;BME280;21982;49.804;24.072;2023-03-16T11:41:13;97418.44;;;9.26;36.58
35878;BME280;21982;49.804;24.072;2023-03-16T11:46:26;97483.81;;;9.47;36.71
35878;BME280;21982;49.804;24.072;2023-03-16T11:52:16;97481.19;;;9.70;36.79
35878;BME280;21982;49.804;24.072;2023-03-16T12:07:58;97496.41;;;9.22;37.64
35878;BME280;21982;49.804;24.072;2023-03-16T12:19:10;97470.88;;;13.37;34.85
35878;BME280;21982;49.804;24.072;2023-03-16T12:21:42;97487.03;;;12.88;34.12
35878;BME280;21982;49.804;24.072;2023-03-16T12:24:19;97432.97;;;11.50;34.33
35878;BME280;21982;49.804;24.072;2023-03-16T12:26:48;97497.25;;;10.94;35.59
35878;BME280;21982;49.804;24.072;2023-03-16T12:29:37;97410.53;;;10.08;36.18
35878;BME280;21982;49.804;24.072;2023-03-16T12:32:20;97502.91;;;10.91;35.64
35878;BME280;21982;49.804;24.072;2023-03-16T12:34:58;97461.25;;;11.00;35.28
35878;BME280;21982;49.804;24.072;2023-03-16T12:37:40;97351.78;;;10.13;35.13
35878;BME280;21982;49.804;24.072;2023-03-16T12:40:24;97508.16;;;10.55;35.43
35878;BME280;21982;49.804;24.072;2023-03-16T12:46:07;97431.56;;;9.34;35.85
35878;BME280;21982;49.804;24.072;2023-03-16T12:48:48;97513.50;;;9.57;36.53
35878;BME280;21982;49.804;24.072;2023-03-16T12:51:16;97512.41;;;9.89;36.33
35878;BME280;21982;49.804;24.072;2023-03-16T12:53:52;97472.47;;;10.66;36.63
35878;BME280;21982;49.804;24.072;2023-03-16T12:56:26;97311.94;;;9.85;35.74
35878;BME280;21982;49.804;24.072;2023-03-16T12:58:56;97496.28;;;10.51;35.65
35878;BME280;21982;49.804;24.072;2023-03-16T13:01:28;97472.31;;;10.00;36.16
35878;BME280;21982;49.804;24.072;2023-03-16T13:04:01;97516.41;;;9.85;36.20
35878;BME280;21982;49.804;24.072;2023-03-16T13:06:32;97524.66;;;9.45;36.86
35878;BME280;21982;49.804;24.072;2023-03-16T13:08:59;97474.81;;;8.88;36.70
35878;BME280;21982;49.804;24.072;2023-03-16T13:11:26;97524.63;;;8.91;37.09
35878;BME280;21982;49.804;24.072;2023-03-16T13:16:29;97528.75;;;8.93;36.57
35878;BME280;21982;49.804;24.072;2023-03-16T13:18:55;97522.06;;;9.05;36.39
35878;BME280;21982;49.804;24.072;2023-03-16T13:21:39;97491.97;;;8.84;37.03
35878;BME280;21982;49.804;24.072;2023-03-16T13:26:50;97396.81;;;8.38;36.73
35878;BME280;21982;49.804;24.072;2023-03-16T13:29:24;97511.66;;;9.04;36.01
35878;BME280;21982;49.804;24.072;2023-03-16T13:31:51;97541.06;;;9.01;36.53
35878;BME280;21982;49.804;24.072;2023-03-16T13:34:31;97467.09;;;8.31;37.41
35878;BME280;21982;49.804;24.072;2023-03-16T13:36:58;97484.41;;;8.25;36.71
35878;BME280;21982;49.804;24.072;2023-03-16T13:39:28;97420.59;;;7.58;36.61
35878;BME280;21982;49.804;24.072;2023-03-16T13:42:08;97537.84;;;8.27;37.51
35878;BME280;21982;49.804;24.072;2023-03-16T13:44:39;97542.78;;;8.14;37.56
35878;BME280;21982;49.804;24.072;2023-03-16T13:47:05;97524.84;;;7.93;37.25
35878;BME280;21982;49.804;24.072;2023-03-16T13:49:32;97549.88;;;8.14;37.19
35878;BME280;21982;49.804;24.072;2023-03-16T13:51:57;97559.44;;;8.06;37.80
35878;BME280;21982;49.804;24.072;2023-03-16T13:54:27;97560.25;;;8.07;37.21
35878;BME280;21982;49.804;24.072;2023-03-16T13:56:58;97516.63;;;7.96;37.88
35878;BME280;21982;49.804;24.072;2023-03-16T13:59:25;97550.22;;;8.27;37.44
35878;BME280;21982;49.804;24.072;2023-03-16T14:01:56;97479.34;;;8.07;37.51
35878;BME280;21982;49.804;24.072;2023-03-16T14:04:25;97525.63;;;8.90;37.19
35878;BME280;21982;49.804;24.072;2023-03-16T14:07:00;97336.66;;;8.33;36.42
35878;BME280;21982;49.804;24.072;2023-03-16T14:09:34;97442.34;;;9.02;35.65
35878;BME280;21982;49.804;24.072;2023-03-16T14:11:59;97434.88;;;8.52;36.37